1964 NOT_NAMED (1964085S13129)


IBTrACS version v04r00. Visit IBTrACS website for data access.
Please direct all questions to the IBTrACS Q and A forum

Storm track - Intensity - Wind Radii - Intensity Data - Source Data - All data

Summary Information

Storm ID 1964085S13129
Start Mar 24 23Z
Landfall Apr 2 00Z
End Apr 2 23Z
ATCF IDs
Track status Best track data.

Storm track plot

Map of storm track

Intensity plots

No Intensity information for this storm


Radial wind information

No radial wind information for this storm


Position and Intensity Table

BASIN ISO_TIME_________ NATURE LAT LON
degrees north degrees east
SI 1964-03-24 23:00:00 NR -12.60 128.90
SI 23:30:00 NR -12.60 128.82
SI 1964-03-25 00:00:00 TS -12.60 128.76
SI 03:00:00 TS -12.61 128.31
SI 06:00:00 TS -12.61 127.88
SI 09:00:00 TS -12.61 127.52
SI 11:00:00 TS -12.60 127.30
SI 12:00:00 TS -12.60 127.21
SI 15:00:00 TS -12.58 126.94
SI 18:00:00 TS -12.57 126.66
SI 21:00:00 TS -12.57 126.32
SI 23:00:00 TS -12.59 126.00
SI 1964-03-26 00:00:00 TS -12.61 125.78
SI 01:00:00 TS -12.64 125.52
SI 03:00:00 TS -12.73 124.92
SI 06:00:00 TS -12.90 123.90
SI 09:00:00 TS -13.12 122.88
SI 11:00:00 TS -13.30 122.21
SI 12:00:00 TS -13.40 121.90
SI 15:00:00 TS -13.77 120.97
SI 18:00:00 TS -14.17 120.13
SI 21:00:00 TS -14.52 119.42
SI 23:00:00 TS -14.71 119.03
SI 1964-03-27 00:00:00 TS -14.79 118.86
SI 01:00:00 TS -14.84 118.71
SI 03:00:00 TS -14.93 118.46
SI 06:00:00 TS -15.04 118.14
SI 09:00:00 TS -15.20 117.83
SI 11:00:00 TS -15.31 117.61
SI 12:00:00 TS -15.38 117.48
SI 15:00:00 TS -15.58 117.05
SI 18:00:00 TS -15.78 116.62
SI 21:00:00 TS -15.99 116.24
SI 23:00:00 TS -16.12 116.00
SI 1964-03-28 00:00:00 TS -16.18 115.89
SI 01:00:00 TS -16.22 115.79
SI 03:00:00 TS -16.30 115.58
SI 06:00:00 TS -16.42 115.30
SI 09:00:00 TS -16.58 115.05
SI 11:00:00 TS -16.71 114.89
SI 12:00:00 TS -16.79 114.80
SI 15:00:00 TS -17.04 114.51
SI 18:00:00 TS -17.30 114.25
SI 19:00:00 TS -17.38 114.18
SI 21:00:00 TS -17.54 114.08
SI 23:00:00 TS -17.67 114.01
SI 1964-03-29 00:00:00 TS -17.73 113.98
SI 01:00:00 TS -17.77 113.96
SI 03:00:00 TS -17.85 113.92
SI 06:00:00 TS -17.94 113.89
SI 09:00:00 TS -18.03 113.90
SI 11:00:00 TS -18.09 113.90
SI 12:00:00 TS -18.10 113.89
SI 13:00:00 TS -18.11 113.88
SI 15:00:00 TS -18.12 113.85
SI 16:00:00 TS -18.13 113.84
SI 18:00:00 TS -18.17 113.81
SI 21:00:00 TS -18.26 113.80
SI 23:00:00 TS -18.40 113.80
SI 1964-03-30 00:00:00 TS -18.51 113.80
SI 01:00:00 TS -18.65 113.82
SI 03:00:00 TS -18.99 113.85
SI 06:00:00 TS -19.59 113.89
SI 07:00:00 TS -19.79 113.90
SI 09:00:00 TS -20.20 113.91
SI 11:00:00 TS -20.60 113.91
SI 12:00:00 TS -20.79 113.89
SI 15:00:00 TS -21.30 113.83
SI 18:00:00 TS -21.80 113.72
SI 21:00:00 TS -22.30 113.58
SI 23:00:00 TS -22.62 113.48
SI 1964-03-31 00:00:00 TS -22.78 113.42
SI 01:00:00 TS -22.92 113.36
SI 03:00:00 TS -23.19 113.23
SI 06:00:00 TS -23.61 113.02
SI 09:00:00 TS -24.08 112.82
SI 11:00:00 TS -24.41 112.68
SI 12:00:00 TS -24.59 112.61
SI 15:00:00 TS -25.14 112.38
SI 18:00:00 TS -25.72 112.20
SI 21:00:00 TS -26.32 112.09
SI 23:00:00 TS -26.71 112.09
SI 1964-04-01 00:00:00 TS -26.89 112.12
SI 01:00:00 TS -27.06 112.16
SI 03:00:00 TS -27.37 112.31
SI 06:00:00 TS -27.81 112.62
SI 09:00:00 TS -28.23 113.00
SI 11:00:00 TS -28.49 113.28
SI 12:00:00 TS -28.61 113.40
SI 15:00:00 TS -28.92 113.77
SI 16:00:00 TS -29.02 113.90
SI 18:00:00 TS -29.22 114.17
SI 21:00:00 TS -29.54 114.60
SI 23:00:00 TS -29.78 114.92
SI 1964-04-02 00:00:00 TS -29.92 115.08
SI 03:00:00 TS -30.38 115.61
SI 06:00:00 TS -30.88 116.21
SI 09:00:00 TS -31.38 116.88
SI 11:00:00 TS -31.72 117.37
SI 12:00:00 TS -31.89 117.63
SI 15:00:00 TS -32.40 118.45
SI 18:00:00 TS -32.92 119.31
SI 21:00:00 NR -33.45 120.20
SI 23:00:00 NR -33.80 120.80

Source Information

Agency Information
USA
TOKYO
CMA
HKO
NEWDELHI
REUNION
BOM
NADI
WELLINGTON
DS824 s_hem.dat:930:28S
TD9636 cons_worldwide_trop_cyclone_18710101-19891231-006:Line=6962
TD9635
NEUMANN
MLC

All available IBTrACS Data

SEASON BASIN SUBBASIN ISO_TIME_________ NATURE LAT LON DIST2LAND LANDFALL IFLAG USA SSHS DS824 LAT DS824 LON DS824 STAGE TD9636 LAT TD9636 LON TD9636 STAGE STORM SPEED STORM DIR
Year degrees north degrees east km km 1 degrees north degrees east degrees north degrees east kts degrees
1964 SI WA 1964-03-24 23:00:00 NR -12.60 128.90 137 137 __________O___ -1 -12.60 128.90 1 9 268
1964 SI WA 23:30:00 NR -12.60 128.82 147 147 __________P___ -1 -12.60 128.82 1 8 269
1964 SI WA 1964-03-25 00:00:00 TS -12.60 128.76 147 147 _________OP___ -1 -12.60 128.80 TC -12.60 128.75 1 9 269
1964 SI WA 03:00:00 TS -12.61 128.31 184 159 _________PP___ -1 -12.60 128.33 TC -12.62 128.29 1 9 269
1964 SI WA 06:00:00 TS -12.61 127.88 159 141 _________OP___ -1 -12.60 127.90 TC -12.62 127.87 1 8 270
1964 SI WA 09:00:00 TS -12.61 127.52 141 136 _________PP___ -1 -12.60 127.53 TC -12.61 127.50 1 7 271
1964 SI WA 11:00:00 TS -12.60 127.30 136 134 _________PO___ -1 -12.60 127.31 TC -12.60 127.30 1 6 272
1964 SI WA 12:00:00 TS -12.60 127.21 134 134 _________OP___ -1 -12.60 127.20 TC -12.59 127.21 1 5 273
1964 SI WA 15:00:00 TS -12.58 126.94 134 134 _________PP___ -1 -12.60 126.91 TC -12.56 126.98 1 5 273
1964 SI WA 18:00:00 TS -12.57 126.66 136 136 _________OP___ -1 -12.60 126.60 TC -12.54 126.72 1 6 271
1964 SI WA 21:00:00 TS -12.57 126.32 149 149 _________PP___ -1 -12.58 126.30 TC -12.56 126.35 1 8 268
1964 SI WA 23:00:00 TS -12.59 126.00 157 157 _________PO___ -1 -12.58 126.00 TC -12.60 126.00 2 11 265
1964 SI WA 1964-03-26 00:00:00 TS -12.61 125.78 160 160 _________OP___ -1 -12.60 125.80 TC -12.63 125.76 2 14 264
1964 SI WA 01:00:00 TS -12.64 125.52 169 164 _________PP___ -1 -12.63 125.55 TC -12.66 125.49 2 17 262
1964 SI WA 03:00:00 TS -12.73 124.92 194 188 _________PP___ -1 -12.71 124.94 TC -12.74 124.90 2 19 261
1964 SI WA 06:00:00 TS -12.90 123.90 236 236 _________OP___ -1 -12.90 123.90 TC -12.91 123.90 2 20 259
1964 SI WA 09:00:00 TS -13.12 122.88 299 299 _________PP___ -1 -13.11 122.89 TC -13.13 122.86 2 20 257
1964 SI WA 11:00:00 TS -13.30 122.21 349 349 _________PO___ -1 -13.29 122.22 TC -13.30 122.20 1 20 254
1964 SI WA 12:00:00 TS -13.40 121.90 363 357 _________OP___ -1 -13.40 121.90 TC -13.40 121.89 1 20 249
1964 SI WA 15:00:00 TS -13.77 120.97 364 364 _________PP___ -1 -13.79 120.94 TC -13.75 120.99 1 19 246
1964 SI WA 18:00:00 TS -14.17 120.13 394 394 _________OP___ -1 -14.20 120.10 TC -14.13 120.15 1 17 244
1964 SI WA 21:00:00 TS -14.52 119.42 425 425 _________PP___ -1 -14.54 119.42 TC -14.49 119.42 1 14 243
1964 SI WA 23:00:00 TS -14.71 119.03 443 443 _________PO___ -1 -14.73 119.06 TC -14.70 119.00 1 12 244
1964 SI WA 1964-03-27 00:00:00 TS -14.79 118.86 445 445 _________OP___ -1 -14.80 118.90 TC -14.77 118.82 1 10 247
1964 SI WA 01:00:00 TS -14.84 118.71 463 456 _________PP___ -1 -14.85 118.75 TC -14.84 118.67 1 8 250
1964 SI WA 03:00:00 TS -14.93 118.46 475 475 _________PP___ -1 -14.91 118.51 TC -14.95 118.40 1 7 250
1964 SI WA 06:00:00 TS -15.04 118.14 506 501 _________OP___ -1 -15.00 118.20 TC -15.08 118.08 1 7 246
1964 SI WA 09:00:00 TS -15.20 117.83 525 525 _________PP___ -1 -15.18 117.86 TC -15.21 117.80 1 7 242
1964 SI WA 11:00:00 TS -15.31 117.61 539 539 _________PO___ -1 -15.33 117.63 TC -15.30 117.60 1 8 241
1964 SI WA 12:00:00 TS -15.38 117.48 544 544 _________OP___ -1 -15.40 117.50 TC -15.36 117.47 1 9 244
1964 SI WA 15:00:00 TS -15.58 117.05 546 535 _________PP___ -1 -15.60 117.05 TC -15.56 117.06 1 9 244
1964 SI WA 18:00:00 TS -15.78 116.62 537 516 _________OP___ -1 -15.80 116.60 TC -15.77 116.64 1 9 242
1964 SI WA 21:00:00 TS -15.99 116.24 517 507 _________PP___ -1 -16.01 116.23 TC -15.97 116.24 1 8 240
1964 SI WA 23:00:00 TS -16.12 116.00 508 499 _________PO___ -1 -16.14 116.01 TC -16.10 116.00 1 8 241
1964 SI WA 1964-03-28 00:00:00 TS -16.18 115.89 499 499 _________OP___ -1 -16.20 115.90 TC -16.15 115.89 1 7 245
1964 SI WA 01:00:00 TS -16.22 115.79 501 492 _________PP___ -1 -16.24 115.79 TC -16.20 115.78 1 6 248
1964 SI WA 03:00:00 TS -16.30 115.58 494 489 _________PP___ -1 -16.30 115.58 TC -16.29 115.58 1 6 247
1964 SI WA 06:00:00 TS -16.42 115.30 492 478 _________OP___ -1 -16.40 115.30 TC -16.43 115.31 1 6 241
1964 SI WA 09:00:00 TS -16.58 115.05 478 471 _________PP___ -1 -16.58 115.05 TC -16.58 115.06 1 6 233
1964 SI WA 11:00:00 TS -16.71 114.89 475 469 _________PO___ -1 -16.72 114.89 TC -16.70 114.90 1 6 229
1964 SI WA 12:00:00 TS -16.79 114.80 469 459 _________OP___ -1 -16.80 114.80 TC -16.78 114.81 1 7 228
1964 SI WA 15:00:00 TS -17.04 114.51 464 447 _________PP___ -1 -17.05 114.48 TC -17.03 114.54 1 7 226
1964 SI WA 18:00:00 TS -17.30 114.25 453 444 _________OP___ -1 -17.30 114.20 TC -17.30 114.30 1 7 222
1964 SI WA 19:00:00 TS -17.38 114.18 444 439 _________PP___ -1 -17.38 114.14 TC -17.39 114.23 1 6 214
1964 SI WA 21:00:00 TS -17.54 114.08 439 425 _________PP___ -1 -17.52 114.06 TC -17.56 114.10 1 5 210
1964 SI WA 23:00:00 TS -17.67 114.01 425 425 _________PO___ -1 -17.65 114.02 TC -17.70 114.00 2 4 206
1964 SI WA 1964-03-29 00:00:00 TS -17.73 113.98 425 416 _________OP___ -1 -17.70 114.00 TC -17.75 113.96 2 3 206
1964 SI WA 01:00:00 TS -17.77 113.96 416 416 _________PP___ -1 -17.74 113.97 TC -17.80 113.94 2 3 206
1964 SI WA 03:00:00 TS -17.85 113.92 413 413 _________PP___ -1 -17.81 113.93 TC -17.89 113.90 2 2 200
1964 SI WA 06:00:00 TS -17.94 113.89 413 404 _________OP___ -1 -17.90 113.90 TC -17.98 113.89 2 2 185
1964 SI WA 09:00:00 TS -18.03 113.90 404 395 _________PP___ -1 -18.01 113.90 TC -18.05 113.90 2 2 170
1964 SI WA 11:00:00 TS -18.09 113.90 395 395 _________PO___ -1 -18.07 113.90 TC -18.10 113.90 2 1 0
1964 SI WA 12:00:00 TS -18.10 113.89 395 395 _________OP___ -1 -18.10 113.90 TC -18.10 113.89 2 1 0
1964 SI WA 13:00:00 TS -18.11 113.88 395 395 _________PP___ -1 -18.12 113.89 TC -18.11 113.88 2 1 238
1964 SI WA 15:00:00 TS -18.12 113.85 395 395 _________PP___ -1 -18.14 113.85 TC -18.10 113.86 2 1 239
1964 SI WA 16:00:00 TS -18.13 113.84 401 391 _________PP___ -1 -18.16 113.83 TC -18.11 113.85 2 1 222
1964 SI WA 18:00:00 TS -18.17 113.81 391 382 _________OP___ -1 -18.20 113.80 TC -18.13 113.83 2 2 193
1964 SI WA 21:00:00 TS -18.26 113.80 382 373 _________PP___ -1 -18.27 113.79 TC -18.24 113.81 2 3 0
1964 SI WA 23:00:00 TS -18.40 113.80 373 364 _________PO___ -1 -18.40 113.79 TC -18.40 113.80 2 5 0
1964 SI WA 1964-03-30 00:00:00 TS -18.51 113.80 364 355 _________OP___ -1 -18.50 113.80 TC -18.52 113.81 2 8 176
1964 SI WA 01:00:00 TS -18.65 113.82 355 321 _________PP___ -1 -18.64 113.81 TC -18.66 113.82 2 10 174
1964 SI WA 03:00:00 TS -18.99 113.85 321 256 _________PP___ -1 -18.98 113.85 TC -18.99 113.84 2 11 176
1964 SI WA 06:00:00 TS -19.59 113.89 256 235 _________OP___ -1 -19.60 113.90 TC -19.57 113.88 2 12 176
1964 SI WA 07:00:00 TS -19.79 113.90 235 190 _________PP___ -1 -19.80 113.91 TC -19.78 113.89 2 12 0
1964 SI WA 09:00:00 TS -20.20 113.91 190 145 _________PP___ -1 -20.21 113.92 TC -20.19 113.91 2 12 0
1964 SI WA 11:00:00 TS -20.60 113.91 145 123 _________PO___ -1 -20.61 113.91 TC -20.60 113.90 4 12 181
1964 SI WA 12:00:00 TS -20.79 113.89 123 70 _________OP___ -1 -20.80 113.90 TC -20.78 113.89 4 11 187
1964 SI WA 15:00:00 TS -21.30 113.83 70 32 _________PP___ -1 -21.31 113.82 TC -21.29 113.83 4 10 190
1964 SI WA 18:00:00 TS -21.80 113.72 32 20 _________OP___ -1 -21.80 113.70 TC -21.80 113.73 4 10 193
1964 SI WA 21:00:00 TS -22.30 113.58 20 10 _________PP___ -1 -22.31 113.56 TC -22.28 113.60 4 10 195
1964 SI WA 23:00:00 TS -22.62 113.48 10 10 _________PO___ -1 -22.64 113.46 TC -22.60 113.50 1 10 197
1964 SI WA 1964-03-31 00:00:00 TS -22.78 113.42 30 30 _________OP___ -1 -22.80 113.40 TC -22.75 113.44 1 10 200
1964 SI WA 01:00:00 TS -22.92 113.36 38 38 _________PP___ -1 -22.94 113.34 TC -22.90 113.38 1 9 203
1964 SI WA 03:00:00 TS -23.19 113.23 61 60 _________PP___ -1 -23.20 113.21 TC -23.19 113.25 1 9 204
1964 SI WA 06:00:00 TS -23.61 113.02 60 52 _________OP___ -1 -23.60 113.00 TC -23.62 113.04 1 10 203
1964 SI WA 09:00:00 TS -24.08 112.82 69 64 _________PP___ -1 -24.08 112.80 TC -24.08 112.83 1 10 201
1964 SI WA 11:00:00 TS -24.41 112.68 70 70 _________PO___ -1 -24.42 112.67 TC -24.40 112.70 1 11 200
1964 SI WA 12:00:00 TS -24.59 112.61 83 83 _________OP___ -1 -24.60 112.60 TC -24.58 112.62 1 12 201
1964 SI WA 15:00:00 TS -25.14 112.38 120 112 _________PP___ -1 -25.14 112.38 TC -25.15 112.39 1 12 198
1964 SI WA 18:00:00 TS -25.72 112.20 118 112 _________OP___ -1 -25.70 112.20 TC -25.75 112.20 1 12 193
1964 SI WA 21:00:00 TS -26.32 112.09 119 119 _________PP___ -1 -26.31 112.08 TC -26.33 112.09 1 12 185
1964 SI WA 23:00:00 TS -26.71 112.09 127 127 _________PO___ -1 -26.71 112.07 TC -26.70 112.10 1 11 177
1964 SI WA 1964-04-01 00:00:00 TS -26.89 112.12 136 134 _________OP___ -1 -26.90 112.10 TC -26.87 112.13 1 11 168
1964 SI WA 01:00:00 TS -27.06 112.16 141 141 _________PP___ -1 -27.07 112.14 TC -27.04 112.19 1 10 161
1964 SI WA 03:00:00 TS -27.37 112.31 150 141 _________PP___ -1 -27.38 112.28 TC -27.37 112.33 1 10 152
1964 SI WA 06:00:00 TS -27.81 112.62 147 116 _________OP___ -1 -27.80 112.60 TC -27.82 112.65 1 11 144
1964 SI WA 09:00:00 TS -28.23 113.00 116 98 _________PP___ -1 -28.22 112.98 TC -28.24 113.03 1 11 140
1964 SI WA 11:00:00 TS -28.49 113.28 98 96 _________PO___ -1 -28.48 113.26 TC -28.50 113.30 1 10 137
1964 SI WA 12:00:00 TS -28.61 113.40 96 78 _________OP___ -1 -28.60 113.40 TC -28.62 113.41 1 9 135
1964 SI WA 15:00:00 TS -28.92 113.77 78 71 _________PP___ -1 -28.91 113.79 TC -28.94 113.76 1 9 133
1964 SI WA 16:00:00 TS -29.02 113.90 71 59 _________PP___ -1 -29.00 113.93 TC -29.04 113.88 1 9 131
1964 SI WA 18:00:00 TS -29.22 114.17 58 38 _________OP___ -1 -29.20 114.20 TC -29.24 114.14 1 10 130
1964 SI WA 21:00:00 TS -29.54 114.60 38 9 _________PP___ -1 -29.52 114.63 TC -29.56 114.57 1 10 131
1964 SI WA 23:00:00 TS -29.78 114.92 9 0 _________PO___ -1 -29.76 114.94 TC -29.80 114.90 1 11 132
1964 SI WA 1964-04-02 00:00:00 TS -29.92 115.08 0 0 _________OP___ -1 -29.90 115.10 TC -29.94 115.07 1 13 135
1964 SI WA 03:00:00 TS -30.38 115.61 0 0 _________PP___ -1 -30.38 115.61 TC -30.37 115.62 1 14 134
1964 SI WA 06:00:00 TS -30.88 116.21 0 0 _________OP___ -1 -30.90 116.20 TC -30.85 116.23 1 15 133
1964 SI WA 09:00:00 TS -31.38 116.88 0 0 _________PP___ -1 -31.40 116.86 TC -31.36 116.91 1 16 130
1964 SI WA 11:00:00 TS -31.72 117.37 0 0 _________PO___ -1 -31.73 117.34 TC -31.70 117.40 1 16 129
1964 SI WA 12:00:00 TS -31.89 117.63 0 0 _________OP___ -1 -31.90 117.60 TC -31.87 117.66 1 17 127
1964 SI WA 15:00:00 TS -32.40 118.45 0 0 _________PP___ -1 -32.40 118.43 TC -32.40 118.46 1 18 126
1964 SI WA 18:00:00 TS -32.92 119.31 0 0 _________OP___ -1 -32.90 119.30 TC -32.93 119.31 1 18 126
1964 SI WA 21:00:00 NR -33.45 120.20 0 0 __________P___ -1 TC -33.45 120.20 1 18 125
1964 SI WA 23:00:00 NR -33.80 120.80 0 __________O___ -1 TC -33.80 120.80 1 18 125